Terminal Aerodrome Forecast
Issued by NWS

Home | Current Version | Previous Version | Text Only | Print | Product List | Glossary On
Versions: 1 2 3 4 5 6 7 8 9 10 11 12 13 14 15
000
FTAK31 PAJN 240500
TAFAWG
TAF
PAWG 240529Z 2406/2506 27006KT P6SM FEW035 SCT050 BKN090
     FM241200 VRB03KT P6SM BKN050 BKN080
     FM241900 34005KT P6SM VCSH BKN050 OVC080
     FM242200 VRB05KT P6SM -SHRA FEW020 BKN050 OVC080
      AMD LTD TO CLD VIS AND WIND 2406/2415=

USA.gov is the U.S. government's official web portal to all federal, state and local government web resources and services.